createdAt,value
2019-06-20T00:01:37.892Z,5.03
2019-06-20T00:04:24.008Z,4.97
2019-06-20T00:07:10.180Z,5.27
2019-06-20T00:09:56.496Z,5.00
2019-06-20T00:12:42.520Z,5.43
2019-06-20T00:15:28.791Z,4.83
2019-06-20T00:18:14.973Z,5.20
2019-06-20T00:21:01.305Z,5.17
2019-06-20T00:23:47.128Z,5.30
2019-06-20T00:26:33.093Z,5.10
2019-06-20T00:29:19.369Z,5.53
2019-06-20T00:32:05.873Z,5.90
2019-06-20T00:34:52.347Z,5.33
2019-06-20T00:37:38.768Z,5.53
2019-06-20T00:40:25.096Z,6.07
2019-06-20T00:43:17.499Z,6.10
2019-06-20T00:45:58.807Z,5.80
2019-06-20T00:48:45.137Z,5.37
2019-06-20T00:51:31.566Z,5.43
2019-06-20T00:54:17.377Z,4.90
2019-06-20T00:57:03.583Z,5.47
2019-06-20T00:59:49.936Z,5.10
2019-06-20T01:02:36.271Z,5.10
2019-06-20T01:05:22.089Z,5.47
2019-06-20T01:08:07.888Z,5.90
2019-06-20T01:10:54.250Z,5.17
2019-06-20T01:13:40.660Z,5.17
2019-06-20T01:16:26.994Z,5.10
2019-06-20T01:19:13.472Z,5.33
2019-06-20T01:21:59.914Z,5.17
2019-06-20T01:24:46.152Z,5.30
2019-06-20T01:27:31.904Z,5.03
2019-06-20T01:30:18.336Z,5.50
2019-06-20T01:33:04.240Z,5.47
2019-06-20T01:35:50.493Z,5.40
2019-06-20T01:38:36.640Z,5.43
2019-06-20T01:41:23.044Z,5.70
2019-06-20T01:44:09.015Z,5.40
2019-06-20T01:46:55.284Z,5.43
2019-06-20T01:49:41.721Z,5.73
2019-06-20T01:52:28.008Z,5.77
2019-06-20T01:55:14.262Z,5.80
2019-06-20T01:58:00.653Z,5.73
2019-06-20T02:00:48.425Z,6.00
2019-06-20T02:03:34.304Z,5.50
2019-06-20T02:06:20.644Z,5.57
2019-06-20T02:09:07.744Z,5.47
2019-06-20T02:11:53.825Z,5.50
2019-06-20T02:14:39.848Z,5.90
2019-06-20T02:17:26.224Z,5.70
2019-06-20T02:20:25.078Z,5.53
2019-06-20T02:23:11.036Z,5.73
2019-06-20T02:25:57.245Z,5.77
2019-06-20T02:28:43.626Z,6.10
2019-06-20T02:31:29.993Z,5.80
2019-06-20T02:34:16.287Z,6.10
2019-06-20T02:37:02.724Z,5.60
2019-06-20T02:39:48.904Z,5.90
2019-06-20T02:42:35.260Z,6.07
2019-06-20T02:45:21.693Z,6.20
2019-06-20T02:48:07.783Z,5.80
2019-06-20T02:50:53.947Z,5.73
2019-06-20T02:53:40.477Z,6.10
2019-06-20T02:56:26.757Z,5.70
2019-06-20T02:59:13.036Z,6.03
2019-06-20T03:01:58.951Z,6.07
2019-06-20T03:04:45.783Z,5.63
2019-06-20T03:07:32.033Z,5.47
2019-06-20T03:10:18.537Z,5.80
2019-06-20T03:13:04.784Z,5.70
2019-06-20T03:15:51.068Z,5.70
2019-06-20T03:18:37.480Z,5.47
2019-06-20T03:21:23.917Z,5.30
2019-06-20T03:24:09.834Z,5.93
2019-06-20T03:26:56.160Z,5.60
2019-06-20T03:29:42.558Z,5.60
2019-06-20T03:32:29.001Z,5.37
2019-06-20T03:35:16.476Z,6.10
2019-06-20T03:38:02.673Z,5.70
2019-06-20T03:40:49.162Z,5.30
2019-06-20T03:43:34.928Z,5.07
2019-06-20T03:46:21.332Z,4.97
2019-06-20T03:49:07.848Z,4.70
2019-06-20T03:51:54.062Z,4.90
2019-06-20T03:54:40.356Z,4.50
2019-06-20T03:57:26.261Z,4.67
2019-06-20T04:00:12.127Z,4.57
2019-06-20T04:02:58.405Z,5.00
2019-06-20T04:05:44.689Z,4.70
2019-06-20T04:08:30.488Z,5.03
2019-06-20T04:11:16.444Z,4.70
2019-06-20T04:14:02.300Z,4.90
2019-06-20T04:16:48.667Z,4.53
2019-06-20T04:19:35.085Z,4.83
2019-06-20T04:22:21.338Z,4.43
2019-06-20T04:25:07.365Z,4.43
2019-06-20T04:27:53.523Z,4.50
2019-06-20T04:30:39.696Z,4.27
2019-06-20T04:33:25.631Z,4.50
2019-06-20T04:36:11.892Z,4.57
2019-06-20T04:38:58.308Z,5.07
2019-06-20T04:41:44.908Z,4.57
2019-06-20T04:44:31.043Z,4.00
2019-06-20T04:47:17.024Z,4.77
2019-06-20T04:50:03.558Z,4.53
2019-06-20T04:52:49.369Z,4.80
2019-06-20T04:55:35.294Z,3.93
2019-06-20T04:58:21.492Z,4.67
2019-06-20T05:01:07.830Z,4.60
2019-06-20T05:03:53.758Z,4.63
2019-06-20T05:06:41.264Z,4.27
2019-06-20T05:09:27.106Z,4.30
2019-06-20T05:12:13.510Z,4.30
2019-06-20T05:14:59.767Z,4.63
2019-06-20T05:17:46.043Z,4.40
2019-06-20T05:20:32.670Z,4.60
2019-06-20T05:23:18.668Z,5.10
2019-06-20T05:26:04.520Z,4.90
2019-06-20T05:28:50.923Z,5.43
2019-06-20T05:31:37.212Z,6.00
2019-06-20T05:34:23.824Z,5.33
2019-06-20T05:37:10.092Z,5.27
2019-06-20T05:39:56.404Z,5.27
2019-06-20T05:42:42.458Z,4.60
2019-06-20T05:45:28.603Z,4.10
2019-06-20T05:48:14.909Z,4.60
2019-06-20T05:51:01.373Z,5.07
2019-06-20T05:53:47.537Z,4.77
2019-06-20T05:56:33.327Z,4.50
2019-06-20T05:59:19.788Z,4.00
2019-06-20T06:02:06.096Z,4.40
2019-06-20T06:04:52.410Z,4.20
2019-06-20T06:07:38.820Z,4.23
2019-06-20T06:10:25.210Z,4.77
2019-06-20T06:13:11.563Z,4.50
2019-06-20T06:15:57.982Z,4.30
2019-06-20T06:18:44.206Z,4.20
2019-06-20T06:21:30.151Z,4.00
2019-06-20T06:24:15.956Z,4.03
2019-06-20T06:27:01.816Z,4.27
2019-06-20T06:29:48.180Z,4.67
2019-06-20T06:32:39.935Z,4.50
2019-06-20T06:35:21.810Z,4.40
2019-06-20T06:38:08.323Z,4.80
2019-06-20T06:40:54.519Z,4.57
2019-06-20T06:43:42.095Z,4.30
2019-06-20T06:46:43.018Z,4.20
2019-06-20T06:49:16.009Z,4.67
2019-06-20T06:52:02.244Z,4.17
2019-06-20T06:54:48.725Z,4.23
2019-06-20T06:57:35.057Z,4.33
2019-06-20T07:00:21.568Z,4.07
2019-06-20T07:03:07.852Z,4.20
2019-06-20T07:05:54.108Z,4.30
2019-06-20T07:08:40.568Z,4.40
2019-06-20T07:11:26.846Z,4.20
2019-06-20T07:14:13.048Z,4.30
2019-06-20T07:17:00.678Z,4.33
2019-06-20T07:19:47.135Z,4.07
2019-06-20T07:22:33.365Z,4.20
2019-06-20T07:25:19.792Z,4.83
2019-06-20T07:28:06.115Z,4.50
2019-06-20T07:30:52.400Z,4.30
2019-06-20T07:33:38.280Z,3.83
2019-06-20T07:36:24.481Z,4.33
2019-06-20T07:39:10.795Z,4.00
2019-06-20T07:41:56.696Z,4.50
2019-06-20T07:44:42.436Z,4.10
2019-06-20T07:47:28.651Z,4.70
2019-06-20T07:50:15.056Z,4.40
2019-06-20T07:53:02.647Z,4.40
2019-06-20T07:55:48.599Z,4.33
2019-06-20T07:58:34.945Z,4.10
2019-06-20T08:01:21.181Z,4.33
2019-06-20T08:04:07.044Z,4.20
2019-06-20T08:06:53.216Z,3.70
2019-06-20T08:09:44.722Z,4.30
2019-06-20T08:12:27.526Z,4.30
2019-06-20T08:15:15.479Z,4.20
2019-06-20T08:18:01.734Z,4.20
2019-06-20T08:20:48.166Z,3.97
2019-06-20T08:23:34.504Z,4.47
2019-06-20T08:26:20.161Z,4.47
2019-06-20T08:29:18.686Z,4.10
2019-06-20T08:31:54.092Z,4.00
2019-06-20T08:34:39.880Z,3.90
2019-06-20T08:37:26.304Z,4.23
2019-06-20T08:40:12.108Z,4.03
2019-06-20T08:42:58.880Z,4.00
2019-06-20T08:45:45.964Z,4.10
2019-06-20T08:48:32.049Z,3.83
2019-06-20T08:51:18.516Z,3.73
2019-06-20T08:54:05.454Z,4.30
2019-06-20T08:56:51.788Z,3.63
2019-06-20T08:59:38.180Z,4.10
2019-06-20T09:02:24.657Z,3.77
2019-06-20T09:05:11.277Z,3.63
2019-06-20T09:07:58.616Z,3.93
2019-06-20T09:10:45.200Z,3.60
2019-06-20T09:13:31.388Z,4.03
2019-06-20T09:16:24.450Z,3.90
2019-06-20T09:19:05.280Z,3.97
2019-06-20T09:21:52.630Z,3.70
2019-06-20T09:24:39.009Z,4.00
2019-06-20T09:27:25.124Z,3.67
2019-06-20T09:30:11.963Z,3.97
2019-06-20T09:32:58.285Z,3.80
2019-06-20T09:35:44.675Z,4.00
2019-06-20T09:38:30.542Z,4.10
2019-06-20T09:41:16.339Z,4.00
2019-06-20T09:44:03.158Z,4.00
2019-06-20T09:46:50.667Z,4.30
2019-06-20T09:49:36.883Z,4.00
2019-06-20T09:52:23.232Z,4.23
2019-06-20T09:55:12.373Z,4.23
2019-06-20T09:57:58.358Z,4.90
2019-06-20T10:00:44.742Z,4.70
2019-06-20T10:03:30.939Z,4.20
2019-06-20T10:06:16.736Z,3.93
2019-06-20T10:09:04.160Z,4.30
2019-06-20T10:11:49.898Z,3.77
2019-06-20T10:14:36.256Z,3.83
2019-06-20T10:17:22.236Z,3.77
2019-06-20T10:20:08.615Z,4.23
2019-06-20T10:22:54.912Z,4.27
2019-06-20T10:25:41.353Z,3.90
2019-06-20T10:28:27.451Z,4.27
2019-06-20T10:31:13.870Z,4.23
2019-06-20T10:34:00.184Z,4.70
2019-06-20T10:36:48.029Z,4.13
2019-06-20T10:39:34.549Z,4.43
2019-06-20T10:42:20.914Z,4.50
2019-06-20T10:45:07.314Z,4.60
2019-06-20T10:47:53.597Z,4.53
2019-06-20T10:50:39.663Z,4.40
2019-06-20T10:53:25.509Z,4.03
2019-06-20T10:56:12.143Z,3.80
2019-06-20T10:58:58.308Z,4.37
2019-06-20T11:01:44.657Z,4.90
2019-06-20T11:04:31.103Z,4.17
2019-06-20T11:07:17.313Z,4.83
2019-06-20T11:10:05.052Z,4.40
2019-06-20T11:12:55.692Z,4.50
2019-06-20T11:15:39.264Z,4.27
2019-06-20T11:18:26.416Z,4.93
2019-06-20T11:21:12.535Z,4.63
2019-06-20T11:23:58.274Z,5.03
2019-06-20T11:26:44.107Z,4.50
2019-06-20T11:29:30.118Z,4.80
2019-06-20T11:32:16.452Z,5.03
2019-06-20T11:35:02.303Z,4.93
2019-06-20T11:37:48.038Z,4.60
2019-06-20T11:40:35.274Z,4.37
2019-06-20T11:43:22.276Z,4.80
2019-06-20T11:46:07.993Z,4.93
2019-06-20T11:48:53.823Z,5.00
2019-06-20T11:51:40.252Z,4.60
2019-06-20T11:54:26.189Z,4.70
2019-06-20T11:57:12.475Z,4.77
2019-06-20T11:59:58.451Z,4.67
2019-06-20T12:02:46.042Z,4.70
2019-06-20T12:05:32.675Z,5.10
2019-06-20T12:08:19.156Z,4.70
2019-06-20T12:11:05.330Z,4.90
2019-06-20T12:13:51.152Z,4.80
2019-06-20T12:16:39.082Z,5.40
2019-06-20T12:19:25.258Z,4.80
2019-06-20T12:22:11.581Z,5.10
2019-06-20T12:24:57.934Z,4.73
2019-06-20T12:27:45.256Z,4.73
2019-06-20T12:30:31.983Z,4.97
2019-06-20T12:33:18.077Z,4.80
2019-06-20T12:36:04.343Z,5.03
2019-06-20T12:38:50.912Z,5.20
2019-06-20T12:41:37.028Z,5.07
2019-06-20T12:44:22.904Z,5.37
2019-06-20T12:47:08.888Z,4.80
2019-06-20T12:49:55.199Z,4.90
2019-06-20T12:52:42.504Z,5.10
2019-06-20T12:55:29.051Z,5.33
2019-06-20T12:58:15.261Z,5.50
2019-06-20T13:01:01.491Z,4.80
2019-06-20T13:03:48.091Z,5.23
2019-06-20T13:06:34.251Z,5.20
2019-06-20T13:09:20.644Z,4.80
2019-06-20T13:12:06.956Z,5.23
2019-06-20T13:14:53.176Z,5.30
2019-06-20T13:17:41.140Z,5.50
2019-06-20T13:20:27.612Z,5.30
2019-06-20T13:23:13.747Z,5.10
2019-06-20T13:25:59.588Z,5.33
2019-06-20T13:29:00.705Z,5.57
2019-06-20T13:31:33.552Z,6.07
2019-06-20T13:34:19.892Z,5.30
2019-06-20T13:37:05.835Z,5.50
2019-06-20T13:39:52.104Z,5.53
2019-06-20T13:42:39.039Z,5.90
2019-06-20T13:45:25.848Z,6.40
2019-06-20T13:48:12.457Z,6.20
2019-06-20T13:50:58.594Z,6.47
2019-06-20T13:53:46.275Z,6.23
2019-06-20T13:56:32.784Z,6.37
2019-06-20T13:59:19.141Z,6.17
2019-06-20T14:02:06.887Z,6.27
2019-06-20T14:04:53.300Z,6.37
2019-06-20T14:07:43.777Z,6.90
2019-06-20T14:10:27.627Z,6.43
2019-06-20T14:13:19.206Z,6.83
2019-06-20T14:16:01.760Z,6.90
2019-06-20T14:18:47.810Z,7.00
2019-06-20T14:21:34.127Z,7.23
2019-06-20T14:24:20.527Z,7.47
2019-06-20T14:27:06.986Z,7.47
2019-06-20T14:29:53.248Z,7.07
2019-06-20T14:32:39.129Z,7.77
2019-06-20T14:35:25.563Z,8.00
2019-06-20T14:38:11.973Z,7.50
2019-06-20T14:40:57.877Z,7.77
2019-06-20T14:43:44.766Z,7.70
2019-06-20T14:46:32.016Z,8.17
2019-06-20T14:49:17.855Z,8.20
2019-06-20T14:52:03.664Z,8.13
2019-06-20T14:54:50.003Z,8.23
2019-06-20T14:57:36.609Z,8.60
2019-06-20T15:00:23.175Z,8.43
2019-06-20T15:03:09.167Z,8.23
2019-06-20T15:05:55.676Z,8.50
2019-06-20T15:08:41.969Z,8.60
2019-06-20T15:11:28.332Z,8.27
2019-06-20T15:14:14.716Z,9.03
2019-06-20T15:17:00.429Z,8.40
2019-06-20T15:19:47.821Z,8.70
2019-06-20T15:22:34.377Z,8.17
2019-06-20T15:25:20.913Z,8.70
2019-06-20T15:28:07.011Z,8.67
2019-06-20T15:30:54.774Z,8.10
2019-06-20T15:33:41.286Z,8.43
2019-06-20T15:36:27.721Z,9.13
2019-06-20T15:39:14.183Z,8.90
2019-06-20T15:42:00.513Z,9.30
2019-06-20T15:44:47.275Z,9.93
2019-06-20T15:47:34.391Z,9.13
2019-06-20T15:50:20.677Z,9.70
2019-06-20T15:53:06.935Z,10.13
2019-06-20T15:55:53.335Z,9.07
2019-06-20T15:58:39.513Z,8.87
2019-06-20T16:01:25.889Z,9.60
2019-06-20T16:04:12.034Z,8.93
2019-06-20T16:06:58.322Z,9.70
2019-06-20T16:09:44.808Z,9.50
2019-06-20T16:12:31.098Z,10.03
2019-06-20T16:15:20.580Z,9.93
2019-06-20T16:18:06.847Z,10.17
2019-06-20T16:20:59.276Z,10.27
2019-06-20T16:23:45.403Z,9.60
2019-06-20T16:26:31.724Z,9.80
2019-06-20T16:29:18.143Z,9.27
2019-06-20T16:32:04.552Z,9.50
2019-06-20T16:34:50.783Z,10.17
2019-06-20T16:37:37.100Z,9.37
2019-06-20T16:40:36.766Z,9.60
2019-06-20T16:43:22.744Z,10.77
2019-06-20T16:46:09.053Z,9.97
2019-06-20T16:48:55.335Z,9.83
2019-06-20T16:51:41.333Z,10.23
2019-06-20T16:54:27.532Z,9.70
2019-06-20T16:57:13.760Z,10.27
2019-06-20T17:00:00.241Z,10.27
2019-06-20T17:06:15.967Z,10.20
2019-06-20T17:09:02.016Z,9.73
2019-06-20T17:11:48.273Z,10.47
2019-06-20T17:14:34.311Z,10.17
2019-06-20T17:17:20.652Z,10.47
2019-06-20T17:20:07.028Z,10.87
2019-06-20T17:22:53.284Z,10.47
2019-06-20T17:25:39.532Z,10.10
2019-06-20T17:28:25.825Z,10.43
2019-06-20T17:31:12.070Z,10.60
2019-06-20T17:33:58.348Z,10.40
2019-06-20T17:36:44.787Z,9.67
2019-06-20T17:39:31.038Z,10.70
2019-06-20T17:42:17.432Z,10.67
2019-06-20T17:45:03.457Z,10.57
2019-06-20T17:47:49.599Z,10.63
2019-06-20T17:50:35.871Z,9.87
2019-06-20T17:53:21.800Z,10.53
2019-06-20T17:56:07.591Z,10.67
2019-06-20T17:58:54.020Z,10.37
2019-06-20T18:01:39.865Z,10.37
2019-06-20T18:04:26.839Z,10.87
2019-06-20T18:07:13.611Z,11.27
2019-06-20T18:09:59.904Z,11.30
2019-06-20T18:12:46.178Z,10.30
2019-06-20T18:15:33.993Z,11.00
2019-06-20T18:18:20.333Z,12.03
2019-06-20T18:21:06.637Z,11.87
2019-06-20T18:23:52.910Z,12.27
2019-06-20T18:26:39.282Z,12.23
2019-06-20T18:29:25.522Z,11.90
2019-06-20T18:32:11.869Z,11.60
2019-06-20T18:35:02.296Z,11.60
2019-06-20T18:37:45.806Z,11.70
2019-06-20T18:40:31.666Z,11.70
2019-06-20T18:43:17.863Z,12.30
2019-06-20T18:46:03.721Z,11.63
2019-06-20T18:48:50.080Z,12.07
2019-06-20T18:51:36.210Z,12.00
2019-06-20T18:54:22.576Z,12.50
2019-06-20T18:57:08.963Z,12.70
2019-06-20T18:59:55.216Z,11.90
2019-06-20T19:02:41.600Z,12.83
2019-06-20T19:05:27.956Z,12.50
2019-06-20T19:08:14.237Z,12.63
2019-06-20T19:11:00.551Z,13.03
2019-06-20T19:13:46.818Z,13.07
2019-06-20T19:16:33.060Z,13.30
2019-06-20T19:19:20.859Z,12.83
2019-06-20T19:22:06.780Z,13.33
2019-06-20T19:24:53.038Z,12.50
2019-06-20T19:27:46.229Z,12.47
2019-06-20T19:30:32.617Z,12.20
2019-06-20T19:33:18.508Z,12.80
2019-06-20T19:36:04.571Z,12.10
2019-06-20T19:38:50.936Z,12.57
2019-06-20T19:41:37.086Z,12.30
2019-06-20T19:44:23.336Z,13.30
2019-06-20T19:47:09.813Z,12.30
2019-06-20T19:49:56.230Z,12.50
2019-06-20T19:52:42.556Z,12.33
2019-06-20T19:55:29.005Z,12.90
2019-06-20T19:58:15.095Z,12.43
2019-06-20T20:01:01.073Z,12.67
2019-06-20T20:03:47.198Z,12.77
2019-06-20T20:06:33.505Z,12.97
2019-06-20T20:09:19.823Z,12.47
2019-06-20T20:12:06.061Z,13.17
2019-06-20T20:14:52.482Z,12.73
2019-06-20T20:17:38.993Z,15.20
2019-06-20T20:20:25.299Z,13.63
2019-06-20T20:23:11.637Z,13.33
2019-06-20T20:25:58.013Z,12.90
2019-06-20T20:28:43.986Z,13.00
2019-06-20T20:31:30.151Z,13.10
2019-06-20T20:34:16.513Z,12.73
2019-06-20T20:37:02.708Z,12.87
2019-06-20T20:39:48.472Z,12.40
2019-06-20T20:42:34.696Z,12.53
2019-06-20T20:45:21.516Z,13.43
2019-06-20T20:48:07.403Z,13.03
2019-06-20T20:50:53.726Z,12.73
2019-06-20T20:53:39.932Z,13.00
2019-06-20T20:56:25.999Z,12.47
2019-06-20T20:59:11.799Z,12.27
2019-06-20T21:01:57.667Z,13.10
2019-06-20T21:04:44.092Z,12.93
2019-06-20T21:07:30.400Z,13.30
2019-06-20T21:10:16.290Z,13.43
2019-06-20T21:13:02.596Z,13.40
2019-06-20T21:15:48.977Z,12.40
2019-06-20T21:18:35.415Z,13.27
2019-06-20T21:21:21.652Z,13.00
2019-06-20T21:24:07.575Z,12.93
2019-06-20T21:26:54.018Z,13.50
2019-06-20T21:29:40.215Z,13.03
2019-06-20T21:32:26.582Z,13.33
2019-06-20T21:35:14.561Z,13.30
2019-06-20T21:38:00.647Z,12.33
2019-06-20T21:40:47.095Z,13.10
2019-06-20T21:43:33.404Z,13.00
2019-06-20T21:46:19.154Z,13.60
2019-06-20T21:49:04.982Z,13.93
2019-06-20T21:51:51.189Z,13.60
2019-06-20T21:54:37.476Z,13.33
2019-06-20T21:57:23.784Z,13.33
2019-06-20T22:00:12.597Z,13.47
2019-06-20T22:02:58.940Z,13.83
2019-06-20T22:05:44.789Z,13.53
2019-06-20T22:08:31.175Z,13.83
2019-06-20T22:11:17.383Z,13.70
2019-06-20T22:14:03.832Z,13.17
2019-06-20T22:16:50.149Z,13.67
2019-06-20T22:19:36.350Z,13.53
2019-06-20T22:22:22.817Z,14.90
2019-06-20T22:25:09.254Z,13.97
2019-06-20T22:27:55.512Z,14.53
2019-06-20T22:30:43.463Z,15.00
2019-06-20T22:33:29.911Z,14.10
2019-06-20T22:36:16.222Z,15.23
2019-06-20T22:39:03.556Z,14.33
2019-06-20T22:41:49.795Z,14.30
2019-06-20T22:44:36.071Z,14.77
2019-06-20T22:47:22.723Z,14.30
2019-06-20T22:50:09.167Z,14.93
2019-06-20T22:52:55.295Z,14.53
2019-06-20T22:55:41.463Z,14.30
2019-06-20T22:58:27.608Z,14.63
2019-06-20T23:01:13.947Z,13.97
2019-06-20T23:04:00.300Z,14.33
2019-06-20T23:06:55.772Z,14.40
2019-06-20T23:09:34.522Z,15.03
2019-06-20T23:12:20.905Z,15.40
2019-06-20T23:15:07.677Z,16.17
2019-06-20T23:17:53.915Z,15.63
2019-06-20T23:20:40.499Z,17.27
2019-06-20T23:23:26.460Z,16.73
2019-06-20T23:26:13.233Z,17.83
2019-06-20T23:29:17.397Z,17.20
2019-06-20T23:32:03.763Z,17.20
2019-06-20T23:34:49.863Z,16.40
2019-06-20T23:37:35.807Z,17.53
2019-06-20T23:40:22.052Z,17.57
2019-06-20T23:43:08.428Z,16.90
2019-06-20T23:45:54.671Z,16.90
2019-06-20T23:48:40.894Z,17.07
2019-06-20T23:51:28.300Z,17.20
2019-06-20T23:54:14.095Z,16.97
2019-06-20T23:57:00.491Z,16.37
2019-06-20T23:59:46.916Z,16.27
